Carnival Valor — H3VR — position and weather

sailwx.info

Track history (hours):
 
Tides and Currents Weather Stations Pressure Air Temp Water Temp Dewpoint Dewpoint Depression Visibility Wind Speed Wind Dir Waves Ship Positions

Carnival Valor

Last reported at 2018-Feb-24 11:31 UTC. Time now 2018-Feb-24 12:15 UTC.
Position N 29°19' W 094°48'.

Type: Ship. MMSI: 354298000.

Date/timePositionNaut miles runAvg speedWind from/ knotsBaromVisibWave heightAir tempDewpointWater temp
2018-Feb-24 11:31N 29°19' W 094°48'0 0.0
2018-Feb-24 11:22N 29°19' W 094°48'0 0.0
2018-Feb-24 10:46N 29°19' W 094°48'0 0.0
2018-Feb-24 10:28N 29°19' W 094°48'1 2.3
2018-Feb-24 10:00N 29°19' W 094°47'2 4.2
2018-Feb-24 09:30N 29°21' W 094°45'612.8
2018-Feb-24 09:00N 29°19' W 094°38'54516.8
2018-Feb-23 00:29N 21°24' W 089°41'4 7.8
2018-Feb-23 00:00N 21°21' W 089°41'0 0.0
2018-Feb-22 23:30N 21°21' W 089°41'0 0.0
2018-Feb-22 23:00N 21°21' W 089°41'0 0.0
2018-Feb-22 22:30N 21°21' W 089°41'0 0.0
2018-Feb-22 21:59N 21°21' W 089°41'0 0.0
2018-Feb-22 21:29N 21°21' W 089°41'0 0.0
2018-Feb-22 20:59N 21°21' W 089°41'0 0.0
2018-Feb-22 20:29N 21°21' W 089°41'0 0.0
2018-Feb-22 19:59N 21°21' W 089°41'0 0.0
2018-Feb-22 19:28N 21°21' W 089°41'0 0.0
2018-Feb-22 18:58N 21°21' W 089°41'0 0.0
2018-Feb-22 18:28N 21°21' W 089°41'0 0.0
2018-Feb-22 17:58N 21°21' W 089°41'0 0.0
2018-Feb-22 17:30N 21°21' W 089°41'0 0.0
2018-Feb-22 17:00N 21°21' W 089°41'0 0.0
2018-Feb-22 16:30N 21°21' W 089°41'0 0.0
2018-Feb-22 16:00N 21°21' W 089°41'0 0.0
2018-Feb-22 15:30N 21°21' W 089°41'0 0.0
2018-Feb-22 14:59N 21°21' W 089°41'0 0.0
2018-Feb-22 14:30N 21°21' W 089°41'1 1.1
2018-Feb-22 14:00N 21°21' W 089°41'611.9
2018-Feb-22 13:31N 21°27' W 089°41'16012.4
2018-Feb-22 00:38N 20°35' W 086°58'217.8
2018-Feb-22 00:30N 20°34' W 086°59'5 9.7
2018-Feb-22 00:00N 20°29' W 086°59'0 0.2
2018-Feb-21 23:30N 20°29' W 086°59'0 0.0
2018-Feb-21 23:00N 20°29' W 086°59'0 0.0
2018-Feb-21 22:30N 20°29' W 086°59'0 0.0
2018-Feb-21 22:00N 20°29' W 086°59'0 0.0
2018-Feb-21 21:30N 20°29' W 086°59'0 0.0
2018-Feb-21 21:00N 20°29' W 086°59'0 0.0
2018-Feb-21 20:30N 20°29' W 086°59'0 0.0
2018-Feb-21 20:00N 20°29' W 086°59'0 0.0
2018-Feb-21 19:30N 20°29' W 086°59'0 0.0
2018-Feb-21 19:00N 20°29' W 086°59'0 0.0
2018-Feb-21 18:30N 20°29' W 086°59'0 0.0
2018-Feb-21 18:01N 20°29' W 086°59'0 0.0
2018-Feb-21 17:31N 20°29' W 086°59'0 0.0
2018-Feb-21 17:00N 20°29' W 086°59'0 0.0
2018-Feb-21 16:30N 20°29' W 086°59'0 0.0
2018-Feb-21 16:00N 20°29' W 086°59'0 0.0
2018-Feb-21 15:31N 20°29' W 086°59'0 0.1
2018-Feb-21 15:00N 20°29' W 086°59'3 5.4
2018-Feb-21 14:30N 20°31' W 086°59'612.5
2018-Feb-21 14:01N 20°37' W 086°55'56317.4
2018-Feb-20 05:39N 28°15' W 092°56'318.0
2018-Feb-20 05:29N 28°16' W 092°58'817.8
2018-Feb-20 05:00N 28°21' W 093°06'917.8
2018-Feb-20 04:30N 28°26' W 093°15'917.9
2018-Feb-20 04:00N 28°31' W 093°23'918.1
2018-Feb-20 03:31N 28°36' W 093°32'7215.5
2018-Feb-19 22:52N 29°19' W 094°38'514.1
2018-Feb-19 22:30N 29°21' W 094°43'4 2.4
2018-Feb-19 20:44N 29°19' W 094°48'0 0.0
2018-Feb-19 20:23N 29°19' W 094°48'0 0.0
2018-Feb-19 19:46N 29°19' W 094°48'0 0.0
2018-Feb-19 19:19N 29°19' W 094°48'0 0.0
2018-Feb-19 18:13N 29°19' W 094°48'0 0.0
2018-Feb-19 17:52N 29°19' W 094°48'0 0.0
2018-Feb-19 17:21N 29°19' W 094°48'0 0.0
2018-Feb-19 16:57N 29°19' W 094°48'0 0.0
2018-Feb-19 16:30N 29°19' W 094°48'0 0.0
2018-Feb-19 16:00N 29°19' W 094°48'0 0.0
2018-Feb-19 15:30N 29°19' W 094°48'0 0.0
2018-Feb-19 14:46N 29°19' W 094°48'0 0.0
2018-Feb-19 14:19N 29°19' W 094°48'0 0.0
2018-Feb-19 13:58N 29°19' W 094°48'0 0.4
2018-Feb-19 13:30N 29°19' W 094°48'1 2.8
2018-Feb-19 13:00N 29°20' W 094°47'912.7
2018-Feb-19 12:18N 29°18' W 094°37'1114.5
2018-Feb-19 11:31N 29°11' W 094°26'016.4
2018-Feb-19 11:30N 29°11' W 094°26'815.7
2018-Feb-19 10:59N 29°06' W 094°18'816.2
2018-Feb-19 10:30N 29°02' W 094°11'1019.0
2018-Feb-19 09:58N 28°56' W 094°01'919.5
2018-Feb-19 09:30N 28°51' W 093°53'1019.5
2018-Feb-19 09:00N 28°46' W 093°44'1019.5
2018-Feb-19 08:30N 28°40' W 093°34'1019.5
2018-Feb-19 08:00N 28°34' W 093°26'1019.7
2018-Feb-19 07:30N 28°28' W 093°17'1019.8
2018-Feb-19 06:59N 28°23' W 093°07'1019.9
2018-Feb-19 06:30N 28°17' W 092°58'1019.4
2018-Feb-19 06:00N 28°10' W 092°50'1020.3
2018-Feb-19 05:30N 28°02' W 092°43'1020.4
2018-Feb-19 05:00N 27°54' W 092°36'8669.2
2018-Feb-19 05:00N 27°48' W 092°30'2 4.7 100 / 151016.010.8 20.016.719.0
2018-Feb-19 04:30N 27°46' W 092°29'52618.9
2018-Feb-18 00:44N 20°35' W 086°58'417.5
2018-Feb-18 00:30N 20°32' W 086°59'3 6.4
2018-Feb-18 00:00N 20°29' W 086°59'0 0.0
2018-Feb-17 23:29N 20°29' W 086°59'0 0.0
2018-Feb-17 22:59N 20°29' W 086°59'0 0.0
2018-Feb-17 22:29N 20°29' W 086°59'0 0.0
2018-Feb-17 21:55N 20°29' W 086°59'0 0.0
2018-Feb-17 21:25N 20°29' W 086°59'0 0.0
2018-Feb-17 20:58N 20°29' W 086°59'0 0.0
2018-Feb-17 20:28N 20°29' W 086°59'0 0.0
2018-Feb-17 19:58N 20°29' W 086°59'0 0.0
2018-Feb-17 19:30N 20°29' W 086°59'0 0.0
2018-Feb-17 19:00N 20°29' W 086°59'0 0.0
2018-Feb-17 18:30N 20°29' W 086°59'0 0.0
2018-Feb-17 18:00N 20°29' W 086°59'0 0.0
2018-Feb-17 17:30N 20°29' W 086°59'0 0.0
2018-Feb-17 16:59N 20°29' W 086°59'0 0.0
2018-Feb-17 16:29N 20°29' W 086°59'0 0.0
2018-Feb-17 15:59N 20°29' W 086°59'0 0.0
2018-Feb-17 15:29N 20°29' W 086°59'0 0.0
2018-Feb-17 14:59N 20°29' W 086°59'0 0.5
2018-Feb-17 14:30N 20°29' W 086°59'4 7.5
2018-Feb-17 14:00N 20°32' W 086°58'713.3
2018-Feb-17 13:31N 20°38' W 086°54'55619.2
2018-Feb-16 08:34N 28°10' W 092°50'320.4
2018-Feb-16 08:24N 28°12' W 092°53'1120.0
2018-Feb-16 07:52N 28°19' W 093°02'819.2
2018-Feb-16 07:26N 28°23' W 093°10'818.7
2018-Feb-16 07:00N 28°28' W 093°17'1020.1
2018-Feb-16 06:30N 28°34' W 093°27'1020.1
2018-Feb-16 06:00N 28°40' W 093°36'1119.9
2018-Feb-16 05:29N 28°46' W 093°46'1119.9
2018-Feb-16 04:54N 28°52' W 093°56'818.3
2018-Feb-16 04:28N 28°57' W 094°04'715.8
2018-Feb-16 04:00N 29°01' W 094°11'815.8
2018-Feb-16 03:30N 29°06' W 094°18'815.6
2018-Feb-16 03:00N 29°08' W 094°26'815.3
2018-Feb-16 02:30N 29°13' W 094°33'713.2
2018-Feb-16 02:00N 29°18' W 094°38'5 8.8
2018-Feb-16 01:30N 29°21' W 094°42'4 7.2
2018-Feb-16 01:00N 29°20' W 094°46'2 3.2
2018-Feb-16 00:25N 29°19' W 094°48'0 0.0
2018-Feb-15 23:58N 29°19' W 094°48'0 0.0
2018-Feb-15 23:18N 29°19' W 094°48'0 0.0
2018-Feb-15 22:39N 29°19' W 094°48'0 0.0
2018-Feb-15 22:15N 29°19' W 094°48'0 0.0
2018-Feb-15 19:48N 29°19' W 094°48'0 0.0
2018-Feb-15 19:30N 29°19' W 094°48'0 0.0
2018-Feb-15 18:59N 29°19' W 094°48'0 0.2
2018-Feb-15 18:22N 29°19' W 094°48'1 2.4
2018-Feb-15 18:00N 29°19' W 094°47'1010.3
2018-Feb-15 17:02N 29°18' W 094°36'211.2
2018-Feb-15 16:54N 29°17' W 094°34'7 2.1
2018-Feb-15 13:26N 29°13' W 094°27'0 0.0
2018-Feb-15 12:53N 29°13' W 094°27'0 0.9
2018-Feb-15 12:20N 29°13' W 094°27'3 7.9
2018-Feb-15 11:58N 29°13' W 094°31'2 3.0
2018-Feb-15 11:28N 29°13' W 094°29'510.4
2018-Feb-15 11:00N 29°09' W 094°25'611.9
2018-Feb-15 10:29N 29°03' W 094°25'612.0
2018-Feb-15 09:59N 28°57' W 094°25'712.0
2018-Feb-15 09:26N 28°51' W 094°25'512.1
2018-Feb-15 09:00N 28°45' W 094°25'612.1
2018-Feb-15 08:30N 28°39' W 094°25'612.4
2018-Feb-15 08:00N 28°33' W 094°25'612.5
2018-Feb-15 07:30N 28°27' W 094°25'612.4
2018-Feb-15 07:00N 28°21' W 094°25'612.5
2018-Feb-15 06:30N 28°15' W 094°25'713.2
2018-Feb-15 06:00N 28°08' W 094°25'713.2
2018-Feb-15 05:31N 28°01' W 094°25'813.9
2018-Feb-15 04:56N 27°53' W 094°25'715.9
2018-Feb-15 04:29N 27°46' W 094°26'  
Track history (hours):
 
Tides and Currents Weather Stations Pressure Air Temp Water Temp Dewpoint Dewpoint Depression Visibility Wind Speed Wind Dir Waves Ship Positions

Carnival Valor

Last reported at 2018-Feb-24 11:31 UTC. Time now 2018-Feb-24 12:15 UTC.
Position N 29°19' W 094°48'.

Type: Ship. MMSI: 354298000.

Date/timePositionNaut miles runAvg speedWind from/ knotsBaromVisibWave heightAir tempDewpointWater temp
2018-Feb-24 11:31N 29°19' W 094°48'0 0.0
2018-Feb-24 11:22N 29°19' W 094°48'0 0.0
2018-Feb-24 10:46N 29°19' W 094°48'0 0.0
2018-Feb-24 10:28N 29°19' W 094°48'1 2.3
2018-Feb-24 10:00N 29°19' W 094°47'2 4.2
2018-Feb-24 09:30N 29°21' W 094°45'612.8
2018-Feb-24 09:00N 29°19' W 094°38'54516.8
2018-Feb-23 00:29N 21°24' W 089°41'4 7.8
2018-Feb-23 00:00N 21°21' W 089°41'0 0.0
2018-Feb-22 23:30N 21°21' W 089°41'0 0.0
2018-Feb-22 23:00N 21°21' W 089°41'0 0.0
2018-Feb-22 22:30N 21°21' W 089°41'0 0.0
2018-Feb-22 21:59N 21°21' W 089°41'0 0.0
2018-Feb-22 21:29N 21°21' W 089°41'0 0.0
2018-Feb-22 20:59N 21°21' W 089°41'0 0.0
2018-Feb-22 20:29N 21°21' W 089°41'0 0.0
2018-Feb-22 19:59N 21°21' W 089°41'0 0.0
2018-Feb-22 19:28N 21°21' W 089°41'0 0.0
2018-Feb-22 18:58N 21°21' W 089°41'0 0.0
2018-Feb-22 18:28N 21°21' W 089°41'0 0.0
2018-Feb-22 17:58N 21°21' W 089°41'0 0.0
2018-Feb-22 17:30N 21°21' W 089°41'0 0.0
2018-Feb-22 17:00N 21°21' W 089°41'0 0.0
2018-Feb-22 16:30N 21°21' W 089°41'0 0.0
2018-Feb-22 16:00N 21°21' W 089°41'0 0.0
2018-Feb-22 15:30N 21°21' W 089°41'0 0.0
2018-Feb-22 14:59N 21°21' W 089°41'0 0.0
2018-Feb-22 14:30N 21°21' W 089°41'1 1.1
2018-Feb-22 14:00N 21°21' W 089°41'611.9
2018-Feb-22 13:31N 21°27' W 089°41'16012.4
2018-Feb-22 00:38N 20°35' W 086°58'217.8
2018-Feb-22 00:30N 20°34' W 086°59'5 9.7
2018-Feb-22 00:00N 20°29' W 086°59'0 0.2
2018-Feb-21 23:30N 20°29' W 086°59'0 0.0
2018-Feb-21 23:00N 20°29' W 086°59'0 0.0
2018-Feb-21 22:30N 20°29' W 086°59'0 0.0
2018-Feb-21 22:00N 20°29' W 086°59'0 0.0
2018-Feb-21 21:30N 20°29' W 086°59'0 0.0
2018-Feb-21 21:00N 20°29' W 086°59'0 0.0
2018-Feb-21 20:30N 20°29' W 086°59'0 0.0
2018-Feb-21 20:00N 20°29' W 086°59'0 0.0
2018-Feb-21 19:30N 20°29' W 086°59'0 0.0
2018-Feb-21 19:00N 20°29' W 086°59'0 0.0
2018-Feb-21 18:30N 20°29' W 086°59'0 0.0
2018-Feb-21 18:01N 20°29' W 086°59'0 0.0
2018-Feb-21 17:31N 20°29' W 086°59'0 0.0
2018-Feb-21 17:00N 20°29' W 086°59'0 0.0
2018-Feb-21 16:30N 20°29' W 086°59'0 0.0
2018-Feb-21 16:00N 20°29' W 086°59'0 0.0
2018-Feb-21 15:31N 20°29' W 086°59'0 0.1
2018-Feb-21 15:00N 20°29' W 086°59'3 5.4
2018-Feb-21 14:30N 20°31' W 086°59'612.5
2018-Feb-21 14:01N 20°37' W 086°55'56317.4
2018-Feb-20 05:39N 28°15' W 092°56'318.0
2018-Feb-20 05:29N 28°16' W 092°58'817.8
2018-Feb-20 05:00N 28°21' W 093°06'917.8
2018-Feb-20 04:30N 28°26' W 093°15'917.9
2018-Feb-20 04:00N 28°31' W 093°23'918.1
2018-Feb-20 03:31N 28°36' W 093°32'7215.5
2018-Feb-19 22:52N 29°19' W 094°38'514.1
2018-Feb-19 22:30N 29°21' W 094°43'4 2.4
2018-Feb-19 20:44N 29°19' W 094°48'0 0.0
2018-Feb-19 20:23N 29°19' W 094°48'0 0.0
2018-Feb-19 19:46N 29°19' W 094°48'0 0.0
2018-Feb-19 19:19N 29°19' W 094°48'0 0.0
2018-Feb-19 18:13N 29°19' W 094°48'0 0.0
2018-Feb-19 17:52N 29°19' W 094°48'0 0.0
2018-Feb-19 17:21N 29°19' W 094°48'0 0.0
2018-Feb-19 16:57N 29°19' W 094°48'0 0.0
2018-Feb-19 16:30N 29°19' W 094°48'0 0.0
2018-Feb-19 16:00N 29°19' W 094°48'0 0.0
2018-Feb-19 15:30N 29°19' W 094°48'0 0.0
2018-Feb-19 14:46N 29°19' W 094°48'0 0.0
2018-Feb-19 14:19N 29°19' W 094°48'0 0.0
2018-Feb-19 13:58N 29°19' W 094°48'0 0.4
2018-Feb-19 13:30N 29°19' W 094°48'1 2.8
2018-Feb-19 13:00N 29°20' W 094°47'912.7
2018-Feb-19 12:18N 29°18' W 094°37'1114.5
2018-Feb-19 11:31N 29°11' W 094°26'016.4
2018-Feb-19 11:30N 29°11' W 094°26'815.7
2018-Feb-19 10:59N 29°06' W 094°18'816.2
2018-Feb-19 10:30N 29°02' W 094°11'1019.0
2018-Feb-19 09:58N 28°56' W 094°01'919.5
2018-Feb-19 09:30N 28°51' W 093°53'1019.5
2018-Feb-19 09:00N 28°46' W 093°44'1019.5
2018-Feb-19 08:30N 28°40' W 093°34'1019.5
2018-Feb-19 08:00N 28°34' W 093°26'1019.7
2018-Feb-19 07:30N 28°28' W 093°17'1019.8
2018-Feb-19 06:59N 28°23' W 093°07'1019.9
2018-Feb-19 06:30N 28°17' W 092°58'1019.4
2018-Feb-19 06:00N 28°10' W 092°50'1020.3
2018-Feb-19 05:30N 28°02' W 092°43'1020.4
2018-Feb-19 05:00N 27°54' W 092°36'8669.2
2018-Feb-19 05:00N 27°48' W 092°30'2 4.7 100 / 151016.010.8 20.016.719.0
2018-Feb-19 04:30N 27°46' W 092°29'52618.9
2018-Feb-18 00:44N 20°35' W 086°58'417.5
2018-Feb-18 00:30N 20°32' W 086°59'3 6.4
2018-Feb-18 00:00N 20°29' W 086°59'0 0.0
2018-Feb-17 23:29N 20°29' W 086°59'0 0.0
2018-Feb-17 22:59N 20°29' W 086°59'0 0.0
2018-Feb-17 22:29N 20°29' W 086°59'0 0.0
2018-Feb-17 21:55N 20°29' W 086°59'0 0.0
2018-Feb-17 21:25N 20°29' W 086°59'0 0.0
2018-Feb-17 20:58N 20°29' W 086°59'0 0.0
2018-Feb-17 20:28N 20°29' W 086°59'0 0.0
2018-Feb-17 19:58N 20°29' W 086°59'0 0.0
2018-Feb-17 19:30N 20°29' W 086°59'0 0.0
2018-Feb-17 19:00N 20°29' W 086°59'0 0.0
2018-Feb-17 18:30N 20°29' W 086°59'0 0.0
2018-Feb-17 18:00N 20°29' W 086°59'0 0.0
2018-Feb-17 17:30N 20°29' W 086°59'0 0.0
2018-Feb-17 16:59N 20°29' W 086°59'0 0.0
2018-Feb-17 16:29N 20°29' W 086°59'0 0.0
2018-Feb-17 15:59N 20°29' W 086°59'0 0.0
2018-Feb-17 15:29N 20°29' W 086°59'0 0.0
2018-Feb-17 14:59N 20°29' W 086°59'0 0.5
2018-Feb-17 14:30N 20°29' W 086°59'4 7.5
2018-Feb-17 14:00N 20°32' W 086°58'713.3
2018-Feb-17 13:31N 20°38' W 086°54'55619.2
2018-Feb-16 08:34N 28°10' W 092°50'320.4
2018-Feb-16 08:24N 28°12' W 092°53'1120.0
2018-Feb-16 07:52N 28°19' W 093°02'819.2
2018-Feb-16 07:26N 28°23' W 093°10'818.7
2018-Feb-16 07:00N 28°28' W 093°17'1020.1
2018-Feb-16 06:30N 28°34' W 093°27'1020.1
2018-Feb-16 06:00N 28°40' W 093°36'1119.9
2018-Feb-16 05:29N 28°46' W 093°46'1119.9
2018-Feb-16 04:54N 28°52' W 093°56'818.3
2018-Feb-16 04:28N 28°57' W 094°04'715.8
2018-Feb-16 04:00N 29°01' W 094°11'815.8
2018-Feb-16 03:30N 29°06' W 094°18'815.6
2018-Feb-16 03:00N 29°08' W 094°26'815.3
2018-Feb-16 02:30N 29°13' W 094°33'713.2
2018-Feb-16 02:00N 29°18' W 094°38'5 8.8
2018-Feb-16 01:30N 29°21' W 094°42'4 7.2
2018-Feb-16 01:00N 29°20' W 094°46'2 3.2
2018-Feb-16 00:25N 29°19' W 094°48'0 0.0
2018-Feb-15 23:58N 29°19' W 094°48'0 0.0
2018-Feb-15 23:18N 29°19' W 094°48'0 0.0
2018-Feb-15 22:39N 29°19' W 094°48'0 0.0
2018-Feb-15 22:15N 29°19' W 094°48'0 0.0
2018-Feb-15 19:48N 29°19' W 094°48'0 0.0
2018-Feb-15 19:30N 29°19' W 094°48'0 0.0
2018-Feb-15 18:59N 29°19' W 094°48'0 0.2
2018-Feb-15 18:22N 29°19' W 094°48'1 2.4
2018-Feb-15 18:00N 29°19' W 094°47'1010.3
2018-Feb-15 17:02N 29°18' W 094°36'211.2
2018-Feb-15 16:54N 29°17' W 094°34'7 2.1
2018-Feb-15 13:26N 29°13' W 094°27'0 0.0
2018-Feb-15 12:53N 29°13' W 094°27'0 0.9
2018-Feb-15 12:20N 29°13' W 094°27'3 7.9
2018-Feb-15 11:58N 29°13' W 094°31'2 3.0
2018-Feb-15 11:28N 29°13' W 094°29'510.4
2018-Feb-15 11:00N 29°09' W 094°25'611.9
2018-Feb-15 10:29N 29°03' W 094°25'612.0
2018-Feb-15 09:59N 28°57' W 094°25'712.0
2018-Feb-15 09:26N 28°51' W 094°25'512.1
2018-Feb-15 09:00N 28°45' W 094°25'612.1
2018-Feb-15 08:30N 28°39' W 094°25'612.4
2018-Feb-15 08:00N 28°33' W 094°25'612.5
2018-Feb-15 07:30N 28°27' W 094°25'612.4
2018-Feb-15 07:00N 28°21' W 094°25'612.5
2018-Feb-15 06:30N 28°15' W 094°25'713.2
2018-Feb-15 06:00N 28°08' W 094°25'713.2
2018-Feb-15 05:31N 28°01' W 094°25'813.9
2018-Feb-15 04:56N 27°53' W 094°25'715.9
2018-Feb-15 04:29N 27°46' W 094°26'  

Dump ship's entire track history